My Meet Scores
Alyssa Osacky, Dreams Gymnastics Club Inc. - MyMeetScores.com
Top100 | Top Teams | Upcoming Meets | Completed Meets | Latest | Add Scores | Help| Support | Bookmark and Share

Alyssa Osacky, Dreams Gymnastics Club Inc.
Personal Bests
LevelVault BarsBeamFloorAA
39.3509.250 8.9509.05036.175
48.9509.425 9.2509.32536.125
XG8.6759.400 9.3759.30036.750
XP9.2259.300 8.8759.22536.625
Meet Scores
Date Meet Team Session Level Division Vault Bars Beam Floor AA
2019-05-03 2019 Region 5 Xcel Championships Dreams Gymnastics Club Inc. 02O XP JR C 9.075 8T 9.050 14 8.125 34 9.175 26T 35.425 31T
2019-04-05 2019 Illinois XG, XP, XD State Championships Dreams Gymnastics Club Inc. 3 XP Jr B 9.225 13T 9.300 4T 8.875 16 9.225 16 36.625 10
2019-03-08 Lucky Invite Dreams Gymnastics Club Inc. B07 XP Jr A 9.075 4T 9.050 1 8.500 6T 9.150 1 35.775 2
2019-02-23 Kinetic Classic 2019 Dreams Gymnastics Club Inc. 1 XP Younger 8.825 11 9.075 6 8.850 11 8.950 12 35.700 11
2019-01-18 2019 Bravo Classic Dreams Gymnastics Club Inc. 1A XG Jr 8.675 6 9.400 2 9.375 4 9.300 6T 36.750 4
2018-03-08 Level 4 & 5 State Dreams Gymnastics Club Inc. All 4 Sr C 8.325 27 9.275 5 9.150 15T 8.700 23T 35.450 16T
2018-02-23 Kinetic Classic Dreams Gymnastics Club Inc. 7 4 Older 8.950 8T 9.250 12T 8.900 53T 8.925 50T 36.025 21
2018-02-09 IGI Chicago Style Gymnastics Meet Dreams Gymnastics Club Inc. 2 4 211 Lake Shore Dr L4 D 8.400 12 9.350 2 9.050 4 8.925 8 35.725 5
2018-01-19 2018 Bravo Classic Dreams Gymnastics Club Inc. 11B 4 Sr 8.475 6 9.275 5T 9.125 13T 9.000 14 35.875 7
2018-01-12 St Jude Benefit Meet Dreams Gymnastics Club Inc. 2A 4 SrB 8.525 8 9.425 3T 9.050 8 8.650 10T 35.650 6
2017-12-08 St. Nick Invite Dreams Gymnastics Club Inc. 1 4 SrB 8.400 5 9.375 1 9.025 6 9.325 3 36.125 2
2017-03-10 2017 Illinois Level 4 State Championships Dreams Gymnastics Club Inc. 5 4 Jr C 8.525 18 9.000 7 9.175 9T 9.075 11T 35.775 8
2017-02-10 IGI Chicago Style Gymnastics Meet Dreams Gymnastics Club Inc. 632L 4 JrC 8.450 19 8.650 18 9.250 6 8.900 14 35.250 16
2017-02-03 St. Valentines Classic Womens Dreams Gymnastics Club Inc. 3A 4 10 yrs. 7.900 13 8.900 9 8.075 14 8.725 9 33.600 13
2017-01-13 St Jude Benefit Meet Dreams Gymnastics Club Inc. 5A 4 Sr A 8.000 12T 9.050 8 9.100 9T 8.775 7 34.925 8
2016-11-11 2016 Illinois Judges Cup Dreams Gymnastics Club Inc. R3 4 10 Year Ol 8.250 6 8.875 5 8.700 9T 8.950 4 34.775 5
2016-03-04 2016 Illinois Level 3 State Championships Dreams Gymnastics Club Inc. 3 Junior-E 9.175 16 8.925 13 8.700 17 9.050 14 35.850 15
2016-02-19 Midwest Open Womens 2016 Dreams Gymnastics Club Inc. 2A 3 9+ 9.250 8 9.250 2 8.650 8 8.775 8 35.925 4
2016-02-12 IGI Chicago Style Gymnastics Meet Dreams Gymnastics Club Inc. 213 3 SrB 9.250 10 8.950 6 8.625 12 8.775 15 35.600 10
2016-01-08 St Jude Benefit Meet Dreams Gymnastics Club Inc. 8A 3 Sr B 9.350 5T 8.975 3 8.950 9T 8.900 8T 36.175 2
2015-12-11 St. Nick Invite Dreams Gymnastics Club Inc. 5B 3 All 9.000 15T 9.200 9 8.575 18 9.050 17T 35.825 13
Get your scores on
a t-shirt, pin, or hoodie

Order by December 13

www.lazysuits.com